Time;durP1;ratioP1;P1;durP2;ratioP2;P2;SDS_P1;SDS_P2;PMS_P1;PMS_P2;Temp;Humidity;BMP_temperature;BMP_pressure;BME280_temperature;BME280_humidity;BME280_pressure;Samples;Min_cycle;Max_cycle;Signal;HPM_P1;HPM_P2
2024/04/08 00:00:18;;;;;;;6.72;2.33;;;17.70;70.00;;;;;;4996198;28;20034;-67
2024/04/08 00:02:43;;;;;;;4.88;2.28;;;17.80;68.90;;;;;;4995407;28;20089;-67
2024/04/08 00:05:09;;;;;;;15.97;3.30;;;17.70;69.00;;;;;;4989885;28;20038;-67
2024/04/08 00:07:35;;;;;;;9.47;1.87;;;17.70;69.00;;;;;;4994238;28;20041;-67
2024/04/08 00:10:02;;;;;;;9.30;1.90;;;17.70;70.00;;;;;;4996493;28;20056;-68
2024/04/08 00:12:28;;;;;;;7.57;2.03;;;17.60;70.00;;;;;;4994213;28;20105;-67
2024/04/08 00:14:54;;;;;;;10.85;2.08;;;17.50;70.00;;;;;;4999909;28;20121;-67
2024/04/08 00:17:20;;;;;;;11.03;2.67;;;17.50;70.30;;;;;;4999239;28;20034;-67
2024/04/08 00:19:45;;;;;;;5.10;2.03;;;17.50;70.10;;;;;;4993801;28;20408;-66
2024/04/08 00:22:12;;;;;;;12.30;2.03;;;17.50;70.20;;;;;;5000426;28;20030;-66
2024/04/08 00:24:37;;;;;;;7.00;1.83;;;17.50;70.30;;;;;;5000363;28;20062;-66
2024/04/08 00:27:03;;;;;;;10.35;2.22;;;17.40;71.30;;;;;;5001613;28;20088;-67
2024/04/08 00:29:29;;;;;;;13.65;2.15;;;17.40;71.30;;;;;;5001505;28;20033;-67
2024/04/08 00:31:55;;;;;;;12.87;2.20;;;17.40;71.30;;;;;;5001538;28;20106;-68
2024/04/08 00:34:20;;;;;;;12.07;2.60;;;17.30;70.90;;;;;;4997888;28;20117;-67
2024/04/08 00:36:46;;;;;;;8.73;2.53;;;17.40;71.50;;;;;;5012188;28;20041;-68
2024/04/08 00:39:11;;;;;;;11.97;2.27;;;17.30;71.70;;;;;;4996879;28;20027;-68
2024/04/08 00:41:37;;;;;;;12.07;2.00;;;17.40;71.10;;;;;;5001935;28;20084;-68
2024/04/08 00:44:03;;;;;;;12.20;2.63;;;17.30;72.00;;;;;;5000443;28;20500;-67
2024/04/08 00:46:29;;;;;;;10.70;2.63;;;17.30;71.40;;;;;;4997212;28;20026;-68
2024/04/08 00:48:55;;;;;;;25.55;2.45;;;17.30;72.10;;;;;;4994831;28;20496;-68
2024/04/08 00:51:22;;;;;;;;;;;17.30;72.10;;;;;;4993366;28;20512;-67
2024/04/08 00:53:49;;;;;;;15.77;2.20;;;17.40;70.70;;;;;;4994769;28;20008;-67
2024/04/08 00:56:19;;;;;;;8.00;2.40;;;17.30;72.30;;;;;;5001399;28;20631;-67
2024/04/08 00:58:47;;;;;;;19.45;2.60;;;17.30;72.40;;;;;;4999272;28;20061;-68
2024/04/08 01:01:17;;;;;;;8.70;2.70;;;17.50;70.90;;;;;;5000145;28;20026;-68
2024/04/08 01:03:46;;;;;;;11.18;2.05;;;17.40;70.90;;;;;;4997717;28;20034;-68
2024/04/08 01:06:12;;;;;;;8.10;2.00;;;17.40;71.40;;;;;;5001417;28;20053;-67
2024/04/08 01:08:41;;;;;;;;;;;17.30;72.50;;;;;;4992926;28;20040;-67
2024/04/08 01:11:11;;;;;;;14.27;2.10;;;17.30;71.30;;;;;;5001228;28;20060;-68
2024/04/08 01:13:37;;;;;;;12.13;2.33;;;17.30;71.50;;;;;;5004817;28;20084;-68
2024/04/08 01:16:03;;;;;;;15.45;2.15;;;17.20;72.70;;;;;;4998457;28;20030;-67
2024/04/08 01:18:28;;;;;;;13.20;2.40;;;17.20;72.00;;;;;;5001167;28;20110;-68
2024/04/08 01:20:54;;;;;;;12.10;2.40;;;17.10;72.00;;;;;;5001711;28;20401;-67
2024/04/08 01:23:23;;;;;;;7.70;2.07;;;17.10;72.50;;;;;;4992958;28;20053;-68
2024/04/08 01:25:49;;;;;;;10.80;2.53;;;17.30;71.60;;;;;;4998299;28;20499;-67
2024/04/08 01:28:15;;;;;;;15.52;2.47;;;17.20;71.80;;;;;;5002928;28;20046;-68
2024/04/08 01:30:42;;;;;;;13.23;2.90;;;17.20;72.10;;;;;;4997922;28;20034;-67
2024/04/08 01:33:08;;;;;;;11.52;2.10;;;17.20;72.50;;;;;;4998037;28;20410;-67
2024/04/08 01:35:34;;;;;;;8.80;2.10;;;17.10;72.80;;;;;;4997591;28;20027;-68
2024/04/08 01:38:00;;;;;;;17.38;2.35;;;17.10;71.60;;;;;;5003904;28;20022;-68
2024/04/08 01:40:26;;;;;;;9.13;2.30;;;17.20;71.10;;;;;;5000671;28;20459;-67
2024/04/08 01:42:51;;;;;;;12.53;2.10;;;17.10;71.40;;;;;;4996555;28;20042;-68
2024/04/08 01:45:17;;;;;;;20.67;2.37;;;17.10;71.60;;;;;;4999004;28;20293;-68
2024/04/08 01:47:43;;;;;;;14.87;2.80;;;17.10;71.90;;;;;;5009590;28;20018;-67
2024/04/08 01:50:09;;;;;;;17.17;2.83;;;17.10;71.50;;;;;;5003036;28;20395;-68
2024/04/08 01:52:34;;;;;;;14.63;2.72;;;17.00;72.70;;;;;;4999711;28;20092;-68
2024/04/08 01:55:00;;;;;;;13.00;2.07;;;17.00;73.20;;;;;;4999124;28;20038;-68
2024/04/08 01:57:27;;;;;;;18.80;3.00;;;17.00;72.50;;;;;;4994269;28;20080;-68
2024/04/08 01:59:53;;;;;;;13.45;2.42;;;17.00;73.20;;;;;;5001707;28;20113;-68
2024/04/08 02:02:18;;;;;;;13.50;2.43;;;16.90;72.00;;;;;;4997777;28;20102;-68
2024/04/08 02:04:44;;;;;;;7.97;1.90;;;16.90;72.40;;;;;;4996625;28;20041;-68
2024/04/08 02:07:10;;;;;;;15.20;2.27;;;17.00;71.60;;;;;;4999866;28;20030;-68
2024/04/08 02:09:35;;;;;;;17.67;2.17;;;16.90;72.00;;;;;;4999717;28;20042;-68
2024/04/08 02:12:02;;;;;;;7.37;1.90;;;16.70;72.60;;;;;;4998206;28;20100;-68
2024/04/08 02:14:27;;;;;;;9.43;1.95;;;16.70;72.50;;;;;;4998024;28;20448;-68
2024/04/08 02:16:53;;;;;;;8.77;2.27;;;16.70;71.30;;;;;;4998919;28;20030;-67
2024/04/08 02:19:19;;;;;;;12.50;2.23;;;16.80;70.60;;;;;;5004729;28;20029;-66
2024/04/08 02:21:44;;;;;;;20.00;2.30;;;16.80;71.30;;;;;;5000378;28;20065;-68
2024/04/08 02:24:10;;;;;;;10.00;1.97;;;16.60;71.40;;;;;;4998694;28;20504;-67
2024/04/08 02:26:35;;;;;;;9.50;2.00;;;16.50;73.00;;;;;;4999735;28;20035;-67
2024/04/08 02:29:01;;;;;;;10.37;2.83;;;16.50;73.90;;;;;;4993712;28;20041;-67
2024/04/08 02:31:27;;;;;;;12.47;2.67;;;16.30;73.30;;;;;;4998357;28;20089;-67
2024/04/08 02:33:52;;;;;;;9.73;2.20;;;16.30;74.60;;;;;;5002135;28;20061;-67
2024/04/08 02:36:18;;;;;;;19.50;2.53;;;16.20;74.00;;;;;;4994936;28;20022;-67
2024/04/08 02:38:44;;;;;;;9.67;2.10;;;16.20;74.20;;;;;;4995165;28;20034;-67
2024/04/08 02:41:09;;;;;;;9.30;2.22;;;16.30;73.30;;;;;;4993888;28;20033;-67
2024/04/08 02:43:35;;;;;;;5.57;2.77;;;16.20;73.00;;;;;;4999617;28;20034;-67
2024/04/08 02:46:02;;;;;;;7.83;2.03;;;16.20;73.50;;;;;;5001672;28;20499;-67
2024/04/08 02:48:27;;;;;;;7.28;1.95;;;16.40;72.20;;;;;;4995325;28;20030;-67
2024/04/08 02:50:53;;;;;;;7.00;2.13;;;16.30;72.50;;;;;;5004176;28;20035;-67
2024/04/08 02:53:19;;;;;;;5.50;2.33;;;16.30;72.00;;;;;;4997398;28;20061;-68
2024/04/08 02:55:44;;;;;;;8.73;2.07;;;16.50;71.70;;;;;;4999144;28;20026;-67
2024/04/08 02:58:10;;;;;;;13.03;2.93;;;16.30;72.70;;;;;;4999283;28;20041;-66
2024/04/08 03:00:38;;;;;;;9.93;2.27;;;16.20;73.40;;;;;;4995829;28;20089;-67
2024/04/08 03:03:04;;;;;;;11.60;1.73;;;16.20;73.60;;;;;;4995756;28;20048;-67
2024/04/08 03:05:30;;;;;;;7.97;1.90;;;16.20;72.90;;;;;;4993148;28;20499;-67
2024/04/08 03:07:55;;;;;;;8.07;1.77;;;16.20;73.00;;;;;;4996436;28;20038;-67
2024/04/08 03:10:22;;;;;;;8.27;1.30;;;16.20;72.70;;;;;;4993215;28;20042;-67
2024/04/08 03:12:48;;;;;;;;;;;16.30;71.60;;;;;;4993576;28;20033;-67
2024/04/08 03:15:14;;;;;;;12.88;2.00;;;16.30;71.80;;;;;;5009294;28;20364;-66
2024/04/08 03:17:40;;;;;;;9.33;2.13;;;16.30;72.00;;;;;;5002245;28;20033;-66
2024/04/08 03:20:06;;;;;;;9.63;2.28;;;16.20;71.40;;;;;;4997143;28;20034;-67
2024/04/08 03:22:32;;;;;;;9.57;1.83;;;16.10;72.70;;;;;;4996446;28;20022;-67
2024/04/08 03:24:57;;;;;;;8.80;1.60;;;16.00;72.50;;;;;;4998844;28;20041;-67
2024/04/08 03:27:23;;;;;;;11.03;2.23;;;15.90;74.00;;;;;;4997724;28;20054;-67
2024/04/08 03:29:51;;;;;;;9.67;2.60;;;15.90;73.70;;;;;;4997020;28;20121;-67
2024/04/08 03:32:16;;;;;;;10.63;2.60;;;15.90;73.00;;;;;;4992298;28;20045;-67
2024/04/08 03:34:43;;;;;;;16.33;1.93;;;15.90;72.80;;;;;;5003292;28;20496;-67
2024/04/08 03:37:09;;;;;;;;;;;16.00;71.60;;;;;;4997826;28;20022;-66
2024/04/08 03:39:34;;;;;;;7.88;1.75;;;16.10;70.50;;;;;;4996275;28;19916;-67
2024/04/08 03:42:00;;;;;;;9.13;2.07;;;16.10;71.00;;;;;;4996382;28;20050;-67
2024/04/08 03:44:25;;;;;;;8.77;1.90;;;16.00;72.00;;;;;;4996507;28;20044;-67
2024/04/08 03:46:51;;;;;;;14.53;2.73;;;16.10;71.90;;;;;;4999036;28;20031;-67
2024/04/08 03:49:17;;;;;;;8.80;2.17;;;16.10;71.70;;;;;;5000917;28;20042;-67
2024/04/08 03:51:43;;;;;;;7.13;1.77;;;16.10;71.90;;;;;;4996265;28;20549;-67
2024/04/08 03:54:08;;;;;;;13.80;4.60;;;16.10;71.60;;;;;;5003209;28;20068;-67
2024/04/08 03:56:34;;;;;;;7.30;1.67;;;16.10;71.40;;;;;;4994753;28;20325;-66
2024/04/08 03:58:59;;;;;;;12.77;2.00;;;16.10;71.40;;;;;;5002265;28;20083;-67
2024/04/08 04:01:25;;;;;;;10.43;2.13;;;16.10;71.30;;;;;;5000130;28;20026;-66
2024/04/08 04:03:50;;;;;;;9.00;2.30;;;16.00;72.50;;;;;;5001313;28;20042;-67
2024/04/08 04:06:16;;;;;;;9.00;2.27;;;16.10;71.30;;;;;;4999450;28;20237;-67
2024/04/08 04:08:42;;;;;;;8.87;1.47;;;16.10;71.70;;;;;;5005641;28;20074;-66
2024/04/08 04:11:08;;;;;;;8.87;1.80;;;16.10;72.50;;;;;;5001091;28;20038;-67
2024/04/08 04:13:34;;;;;;;8.43;2.17;;;16.00;73.00;;;;;;4997678;28;20045;-67
2024/04/08 04:16:02;;;;;;;10.63;2.25;;;16.10;72.40;;;;;;5000629;28;20034;-67
2024/04/08 04:18:28;;;;;;;16.50;2.88;;;16.00;72.60;;;;;;5002625;28;20019;-67
2024/04/08 04:20:54;;;;;;;8.13;2.30;;;16.10;72.60;;;;;;5003171;28;20044;-66
2024/04/08 04:23:21;;;;;;;7.87;2.40;;;16.10;72.40;;;;;;4996161;28;20173;-67
2024/04/08 04:25:54;;;;;;;9.50;2.40;;;16.00;72.90;;;;;;4999895;28;20030;-66
2024/04/08 04:28:22;;;;;;;14.45;2.85;;;16.00;71.80;;;;;;5005713;28;20034;-66
2024/04/08 04:30:55;;;;;;;11.57;2.25;;;16.10;72.50;;;;;;4999652;28;20036;-67
2024/04/08 04:33:21;;;;;;;8.73;2.25;;;16.10;72.50;;;;;;5001619;28;20607;-66
2024/04/08 04:35:57;;;;;;;12.63;2.38;;;16.10;72.20;;;;;;5000219;28;20033;-66
2024/04/08 04:38:23;;;;;;;8.55;1.98;;;16.00;73.30;;;;;;4994176;28;20041;-67
2024/04/08 04:40:59;;;;;;;8.80;2.05;;;16.00;72.40;;;;;;4999307;28;20057;-66
2024/04/08 04:43:24;;;;;;;18.00;2.83;;;16.10;72.70;;;;;;4998197;28;20034;-67
2024/04/08 04:45:50;;;;;;;8.20;2.43;;;16.00;73.40;;;;;;5003192;28;20032;-67
2024/04/08 04:48:16;;;;;;;13.13;2.10;;;16.00;72.80;;;;;;5000524;28;20591;-66
2024/04/08 04:50:41;;;;;;;13.00;2.13;;;15.90;74.20;;;;;;5008121;28;20105;-67
2024/04/08 04:53:07;;;;;;;15.50;3.37;;;16.00;72.70;;;;;;5001130;28;20500;-67
2024/04/08 04:55:32;;;;;;;16.43;2.93;;;16.00;72.60;;;;;;4999402;28;20037;-66
2024/04/08 04:57:58;;;;;;;7.80;1.90;;;16.00;72.60;;;;;;5002311;28;20030;-67
2024/04/08 05:00:26;;;;;;;9.47;2.43;;;16.00;72.30;;;;;;5003291;28;20503;-66
2024/04/08 05:02:52;;;;;;;11.30;2.15;;;15.90;73.20;;;;;;4999435;28;20036;-66
2024/04/08 05:05:18;;;;;;;12.90;2.30;;;15.90;72.90;;;;;;4999889;28;20034;-66
2024/04/08 05:07:43;;;;;;;15.57;2.87;;;16.00;72.20;;;;;;4999566;28;20118;-66
2024/04/08 05:10:09;;;;;;;6.17;2.00;;;15.90;73.60;;;;;;5001768;28;20034;-66
2024/04/08 05:12:35;;;;;;;11.43;2.40;;;15.80;74.30;;;;;;5000761;28;20354;-67
2024/04/08 05:15:00;;;;;;;16.13;2.37;;;15.70;74.00;;;;;;4999605;28;20419;-66
2024/04/08 05:17:26;;;;;;;7.57;1.80;;;15.80;75.00;;;;;;5001582;28;20062;-66
2024/04/08 05:19:52;;;;;;;14.13;2.83;;;15.80;74.10;;;;;;5005811;28;20101;-65
2024/04/08 05:22:18;;;;;;;14.40;2.63;;;15.80;74.10;;;;;;5000361;28;20057;-63
2024/04/08 05:24:44;;;;;;;11.18;2.75;;;15.70;74.70;;;;;;4997736;28;20028;-66
2024/04/08 05:27:10;;;;;;;8.75;1.90;;;15.70;74.80;;;;;;5001646;28;20034;-66
2024/04/08 05:29:36;;;;;;;11.13;2.03;;;15.80;74.20;;;;;;5000411;28;20041;-67
2024/04/08 05:32:02;;;;;;;10.50;2.50;;;16.00;72.00;;;;;;4993648;28;20381;-67
2024/04/08 05:34:28;;;;;;;18.90;2.10;;;15.90;72.90;;;;;;5000309;28;20326;-66
2024/04/08 05:36:53;;;;;;;8.50;2.75;;;15.90;71.50;;;;;;4999285;28;20128;-66
2024/04/08 05:39:19;;;;;;;12.00;2.90;;;16.00;71.40;;;;;;4998442;28;20025;-66
2024/04/08 05:41:45;;;;;;;15.40;1.80;;;16.20;69.90;;;;;;5002812;28;20044;-66
2024/04/08 05:44:10;;;;;;;9.20;2.27;;;16.10;70.90;;;;;;5002466;28;20121;-66
2024/04/08 05:46:36;;;;;;;7.90;2.20;;;16.10;70.90;;;;;;5009171;28;20856;-66
2024/04/08 05:49:01;;;;;;;11.77;2.37;;;16.10;71.90;;;;;;5003063;28;20054;-65
2024/04/08 05:51:27;;;;;;;6.97;1.67;;;16.30;69.90;;;;;;4992854;28;20041;-65
2024/04/08 05:53:53;;;;;;;12.97;2.43;;;16.40;70.80;;;;;;5001207;28;20026;-66
2024/04/08 05:56:19;;;;;;;9.75;2.08;;;16.40;70.40;;;;;;5000579;28;20053;-67
2024/04/08 05:58:45;;;;;;;10.38;2.00;;;16.50;69.70;;;;;;5000810;28;20026;-65
2024/04/08 06:01:12;;;;;;;8.45;2.10;;;16.60;70.00;;;;;;5000626;28;20515;-66
2024/04/08 06:03:37;;;;;;;8.60;1.98;;;16.60;69.10;;;;;;5000006;28;20681;-66
2024/04/08 06:06:06;;;;;;;7.80;1.50;;;16.70;70.10;;;;;;4998592;28;20065;-66
2024/04/08 06:08:32;;;;;;;8.43;1.65;;;16.80;69.10;;;;;;5000295;28;20148;-66
2024/04/08 06:11:04;;;;;;;5.63;1.65;;;17.10;65.40;;;;;;4999216;28;20026;-67
2024/04/08 06:13:32;;;;;;;10.23;1.92;;;17.20;64.90;;;;;;4998302;28;20030;-66
2024/04/08 06:15:58;;;;;;;6.82;1.60;;;17.40;66.90;;;;;;4998287;28;20026;-67
2024/04/08 06:18:23;;;;;;;4.40;1.33;;;17.50;65.10;;;;;;4999736;28;20037;-66
2024/04/08 06:20:55;;;;;;;7.17;1.90;;;17.50;64.70;;;;;;5000316;28;20029;-66
2024/04/08 06:23:21;;;;;;;10.55;2.10;;;17.60;65.60;;;;;;4999739;28;20034;-66
2024/04/08 06:25:56;;;;;;;7.40;2.05;;;17.70;65.90;;;;;;4994274;28;20117;-67
2024/04/08 06:28:22;;;;;;;14.27;2.22;;;17.80;64.30;;;;;;4999524;28;20069;-65
2024/04/08 06:30:47;;;;;;;21.20;1.90;;;17.90;66.10;;;;;;5001044;28;20061;-64
2024/04/08 06:33:13;;;;;;;10.20;2.20;;;18.20;61.00;;;;;;4998512;28;20057;-64
2024/04/08 06:35:42;;;;;;;12.50;2.53;;;18.30;63.80;;;;;;5009616;28;20041;-65
2024/04/08 06:38:08;;;;;;;10.13;1.90;;;18.30;63.30;;;;;;4997212;28;20033;-65
2024/04/08 06:40:33;;;;;;;4.57;1.73;;;18.20;63.20;;;;;;5001503;28;20048;-65
2024/04/08 06:42:59;;;;;;;6.73;2.47;;;18.20;62.30;;;;;;4994280;28;20034;-65
2024/04/08 06:45:25;;;;;;;9.43;2.17;;;18.30;63.40;;;;;;4996627;28;20018;-67
2024/04/08 06:47:52;;;;;;;8.07;2.13;;;18.30;62.20;;;;;;5000455;28;20724;-66
2024/04/08 06:50:17;;;;;;;6.97;1.65;;;18.50;63.50;;;;;;5000109;28;20026;-65
2024/04/08 06:52:43;;;;;;;6.47;1.63;;;18.90;59.20;;;;;;4999307;28;20026;-65
2024/04/08 06:55:09;;;;;;;5.43;1.50;;;19.40;60.10;;;;;;4993138;28;20042;-65
2024/04/08 06:57:35;;;;;;;6.53;1.75;;;19.50;59.80;;;;;;4990230;28;20412;-66
2024/04/08 07:00:01;;;;;;;7.77;1.80;;;19.70;58.90;;;;;;4990421;28;20042;-66
2024/04/08 07:02:27;;;;;;;5.53;1.80;;;19.90;57.90;;;;;;4998200;28;20068;-66
2024/04/08 07:04:52;;;;;;;6.93;1.40;;;20.10;59.60;;;;;;4997168;28;20289;-66
2024/04/08 07:07:18;;;;;;;9.33;2.43;;;19.70;60.50;;;;;;4996646;28;20026;-66
2024/04/08 07:09:43;;;;;;;11.07;1.73;;;19.70;61.10;;;;;;4993922;28;20407;-66
2024/04/08 07:12:09;;;;;;;6.97;1.60;;;19.70;59.00;;;;;;5000107;28;20054;-66
2024/04/08 07:14:34;;;;;;;8.80;1.33;;;20.10;59.80;;;;;;4996928;28;20034;-66
2024/04/08 07:17:00;;;;;;;12.20;2.10;;;20.40;60.40;;;;;;4997205;28;20287;-66
2024/04/08 07:19:26;;;;;;;9.73;2.07;;;20.60;59.30;;;;;;4998521;28;20026;-67
2024/04/08 07:21:51;;;;;;;10.90;2.30;;;20.60;59.60;;;;;;5001238;28;20530;-67
2024/04/08 07:24:17;;;;;;;10.97;2.40;;;20.40;57.30;;;;;;5001014;28;20030;-68
2024/04/08 07:26:45;;;;;;;5.03;1.83;;;20.40;59.60;;;;;;4998710;28;20522;-67
2024/04/08 07:29:11;;;;;;;9.02;2.10;;;20.50;57.50;;;;;;4998419;28;20546;-67
2024/04/08 07:31:36;;;;;;;12.27;1.60;;;20.20;57.40;;;;;;4996524;28;20053;-68
2024/04/08 07:34:02;;;;;;;8.13;1.70;;;20.30;60.20;;;;;;4998421;28;20058;-68
2024/04/08 07:36:28;;;;;;;7.45;1.70;;;20.40;58.40;;;;;;5003104;28;20403;-67
2024/04/08 07:38:54;;;;;;;7.83;1.73;;;20.20;59.00;;;;;;5001452;28;20103;-67
2024/04/08 07:41:19;;;;;;;6.93;1.80;;;20.30;57.50;;;;;;5001225;28;20281;-67
2024/04/08 07:43:46;;;;;;;5.20;1.63;;;20.50;57.80;;;;;;5000541;28;20026;-66
2024/04/08 07:46:12;;;;;;;8.52;1.80;;;20.60;61.60;;;;;;5003560;28;20021;-66
2024/04/08 07:48:37;;;;;;;8.87;2.13;;;20.70;58.90;;;;;;5003094;28;20057;-67
2024/04/08 07:51:04;;;;;;;5.43;1.83;;;20.60;62.80;;;;;;4995298;28;20029;-66
2024/04/08 07:53:30;;;;;;;8.38;2.13;;;20.60;59.00;;;;;;5001350;28;20033;-66
2024/04/08 07:55:55;;;;;;;14.10;2.10;;;21.10;59.00;;;;;;5001596;28;20038;-66
2024/04/08 07:58:21;;;;;;;13.57;2.57;;;21.00;57.30;;;;;;5004262;28;20040;-67
2024/04/08 08:00:59;;;;;;;5.57;1.47;;;20.90;59.50;;;;;;5005340;28;20128;-66
2024/04/08 08:03:26;;;;;;;5.88;1.58;;;20.90;58.20;;;;;;5000742;28;20558;-66
2024/04/08 08:05:53;;;;;;;5.70;2.00;;;21.20;57.60;;;;;;4998767;28;20041;-66
2024/04/08 08:08:18;;;;;;;7.25;2.00;;;21.30;56.40;;;;;;4996793;28;20033;-66
2024/04/08 08:10:45;;;;;;;7.13;1.90;;;21.70;57.50;;;;;;5000099;28;20029;-66
2024/04/08 08:13:11;;;;;;;;;;;22.20;57.10;;;;;;4999895;28;20049;-67
2024/04/08 08:15:36;;;;;;;14.52;2.00;;;22.30;53.80;;;;;;4996506;28;20303;-64
2024/04/08 08:18:02;;;;;;;11.43;2.13;;;22.60;55.30;;;;;;5001929;28;20030;-66
2024/04/08 08:20:28;;;;;;;6.97;1.77;;;22.90;54.00;;;;;;4996684;28;20030;-66
2024/04/08 08:22:56;;;;;;;6.05;1.65;;;23.20;54.30;;;;;;5004738;28;20122;-66
2024/04/08 08:25:23;;;;;;;10.85;2.47;;;23.30;53.30;;;;;;5000447;28;20121;-67
2024/04/08 08:27:49;;;;;;;6.20;1.42;;;23.60;54.90;;;;;;4997944;28;20045;-68
2024/04/08 08:30:14;;;;;;;5.40;1.65;;;22.60;53.50;;;;;;5007340;28;20037;-67
2024/04/08 08:32:40;;;;;;;8.30;1.30;;;21.80;54.20;;;;;;5004131;28;20064;-68
2024/04/08 08:35:06;;;;;;;7.63;1.63;;;21.40;54.80;;;;;;4996115;28;20378;-67
2024/04/08 08:37:32;;;;;;;7.35;1.50;;;21.20;54.70;;;;;;4996517;28;20034;-67
2024/04/08 08:39:57;;;;;;;9.75;1.73;;;21.10;55.90;;;;;;5002060;28;20109;-67
2024/04/08 08:42:28;;;;;;;9.27;1.70;;;21.10;56.00;;;;;;5005210;28;20034;-68
2024/04/08 08:44:56;;;;;;;6.82;2.20;;;21.10;55.40;;;;;;5016478;28;20050;-67
2024/04/08 08:47:23;;;;;;;8.40;2.70;;;21.10;56.00;;;;;;5022284;28;20032;-67
2024/04/08 08:49:53;;;;;;;5.72;1.77;;;21.20;55.20;;;;;;5025186;28;20029;-67
2024/04/08 08:52:20;;;;;;;8.93;1.63;;;21.70;53.80;;;;;;5025851;28;20570;-67
2024/04/08 08:54:46;;;;;;;9.85;1.40;;;22.20;54.20;;;;;;5019860;28;20463;-68
2024/04/08 08:57:12;;;;;;;12.32;1.70;;;22.60;52.70;;;;;;5019029;28;20052;-67
2024/04/08 08:59:39;;;;;;;;;;;22.20;52.20;;;;;;5022765;28;20040;-68
2024/04/08 09:02:05;;;;;;;4.00;1.83;;;21.90;53.30;;;;;;5018114;28;20526;-66
2024/04/08 09:04:30;;;;;;;7.20;2.03;;;21.60;53.30;;;;;;5015824;28;20049;-66
2024/04/08 09:06:56;;;;;;;10.30;1.95;;;21.30;52.80;;;;;;5023968;28;20041;-66
2024/04/08 09:09:22;;;;;;;9.35;1.73;;;21.10;52.90;;;;;;5018700;28;20125;-65
2024/04/08 09:11:48;;;;;;;7.03;1.58;;;20.90;54.10;;;;;;5017304;28;20030;-65
2024/04/08 09:14:14;;;;;;;;;;;20.90;55.00;;;;;;5018052;28;20668;-66
2024/04/08 09:16:42;;;;;;;5.00;1.73;;;20.60;55.10;;;;;;5024329;28;19996;-65
2024/04/08 09:19:09;;;;;;;6.35;1.65;;;20.60;53.80;;;;;;5020184;28;20117;-65
2024/04/08 09:21:35;;;;;;;6.97;1.75;;;20.50;54.60;;;;;;5014480;28;20152;-65
2024/04/08 09:24:05;;;;;;;6.40;1.65;;;20.50;55.20;;;;;;5016678;28;20030;-65
2024/04/08 09:26:31;;;;;;;7.55;2.05;;;20.50;56.80;;;;;;5021369;28;20482;-65
2024/04/08 09:28:57;;;;;;;3.67;1.67;;;20.60;56.60;;;;;;5023461;28;20106;-65
2024/04/08 09:31:24;;;;;;;9.87;1.97;;;20.70;55.40;;;;;;5024183;28;20033;-65
2024/04/08 09:33:49;;;;;;;7.43;2.55;;;20.70;55.50;;;;;;5014939;28;20596;-65
2024/04/08 09:36:17;;;;;;;7.82;2.13;;;20.70;54.90;;;;;;5012303;28;20029;-65
2024/04/08 09:38:44;;;;;;;4.63;1.52;;;20.70;54.50;;;;;;5020452;28;20710;-65
2024/04/08 09:41:12;;;;;;;9.50;1.98;;;20.80;55.70;;;;;;5018077;28;20084;-66
2024/04/08 09:43:39;;;;;;;8.25;1.58;;;20.80;55.60;;;;;;5017643;28;20042;-65
2024/04/08 09:46:05;;;;;;;4.07;1.60;;;20.80;55.30;;;;;;5019694;28;20029;-65
2024/04/08 09:48:34;;;;;;;;;;;20.80;57.30;;;;;;5019151;28;20045;-65
2024/04/08 09:51:06;;;;;;;4.53;1.75;;;20.70;56.30;;;;;;5012467;28;19916;-67
2024/04/08 09:54:57;;;;;;;5.45;1.70;;;20.50;57.00;;;;;;5488950;25;20514;-64
2024/04/08 09:57:26;;;;;;;6.13;1.75;;;20.50;56.90;;;;;;5462617;26;19990;-65
2024/04/08 09:59:56;;;;;;;4.65;1.38;;;20.50;58.40;;;;;;5454039;26;19999;-64
2024/04/08 10:02:37;;;;;;;12.00;2.05;;;20.50;56.80;;;;;;5428780;26;19995;-65
2024/04/08 10:05:06;;;;;;;10.13;1.60;;;20.60;57.30;;;;;;5457220;26;20095;-63
2024/04/08 10:07:33;;;;;;;6.72;1.45;;;20.60;58.20;;;;;;5448406;26;20010;-64
2024/04/08 10:10:03;;;;;;;10.10;1.95;;;20.80;57.60;;;;;;5462628;26;20021;-64
2024/04/08 10:12:34;;;;;;;7.55;1.42;;;20.90;57.60;;;;;;5445402;26;20071;-64
2024/04/08 10:15:14;;;;;;;6.63;1.45;;;21.10;56.10;;;;;;5465742;26;19999;-65
2024/04/08 10:17:48;;;;;;;6.93;1.35;;;21.40;58.60;;;;;;5456284;26;19999;-65
2024/04/08 10:20:17;;;;;;;8.55;1.60;;;21.60;56.60;;;;;;5464091;26;19998;-66
2024/04/08 10:22:44;;;;;;;4.15;1.50;;;21.50;56.00;;;;;;5464269;26;20028;-67
2024/04/08 10:25:32;;;;;;;8.90;1.30;;;21.30;57.60;;;;;;5460098;26;20000;-66
2024/04/08 10:28:02;;;;;;;4.60;1.40;;;21.30;58.50;;;;;;5462982;26;20026;-66
2024/04/08 10:30:28;;;;;;;4.78;1.17;;;21.20;57.30;;;;;;5463036;26;20009;-66
2024/04/08 10:32:53;;;;;;;8.90;2.90;;;21.30;56.00;;;;;;5432140;26;20002;-66
2024/04/08 10:35:19;;;;;;;2.67;1.10;;;21.30;56.70;;;;;;5463889;26;20010;-66
2024/04/08 10:37:45;;;;;;;8.18;1.85;;;21.40;55.80;;;;;;5461957;26;20356;-66
2024/04/08 10:40:11;;;;;;;14.00;2.03;;;21.60;56.40;;;;;;5461419;26;20050;-66
2024/04/08 10:42:37;;;;;;;13.15;1.67;;;21.80;56.90;;;;;;5461645;26;20049;-65
2024/04/08 10:45:03;;;;;;;8.25;1.80;;;22.00;55.00;;;;;;5462106;26;20444;-66
2024/04/08 10:47:28;;;;;;;6.38;1.70;;;22.30;56.30;;;;;;5462876;26;20010;-66
2024/04/08 10:49:54;;;;;;;5.37;1.50;;;22.20;52.80;;;;;;5416640;26;20007;-66
2024/04/08 10:52:20;;;;;;;5.80;1.20;;;22.10;56.30;;;;;;5453760;26;20014;-66
2024/04/08 10:54:46;;;;;;;6.40;1.77;;;22.10;54.30;;;;;;5462838;26;20075;-66
2024/04/08 10:57:12;;;;;;;10.57;1.42;;;22.00;56.30;;;;;;5463236;26;20014;-66
2024/04/08 10:59:37;;;;;;;6.30;1.70;;;22.20;56.00;;;;;;5463139;26;19991;-66
2024/04/08 11:02:12;;;;;;;13.67;1.60;;;22.30;54.40;;;;;;5461730;26;20006;-66
2024/04/08 11:04:38;;;;;;;4.72;1.52;;;22.30;55.80;;;;;;5453129;26;20047;-67
2024/04/08 11:07:04;;;;;;;7.10;1.52;;;22.30;55.70;;;;;;5447924;26;20017;-66
2024/04/08 11:09:29;;;;;;;6.80;1.85;;;22.20;55.70;;;;;;5411992;26;20440;-65
2024/04/08 11:11:55;;;;;;;6.43;1.67;;;22.20;56.60;;;;;;5444464;26;19991;-65
2024/04/08 11:14:21;;;;;;;3.63;1.53;;;22.20;56.00;;;;;;5414450;26;19999;-65
2024/04/08 11:16:47;;;;;;;6.97;1.25;;;22.20;56.20;;;;;;5443675;26;20328;-64
2024/04/08 11:19:13;;;;;;;6.75;1.83;;;22.20;54.40;;;;;;5446641;26;20009;-66
2024/04/08 11:21:39;;;;;;;10.37;1.73;;;22.20;56.40;;;;;;5444621;26;20461;-65
2024/04/08 11:24:11;;;;;;;10.13;1.33;;;22.50;55.80;;;;;;5446909;26;20268;-65
2024/04/08 11:26:37;;;;;;;11.35;3.00;;;23.20;54.50;;;;;;5434846;26;20322;-65
2024/04/08 11:29:03;;;;;;;11.98;2.30;;;23.30;55.10;;;;;;5443123;26;19999;-65
2024/04/08 11:31:28;;;;;;;7.37;1.50;;;23.20;53.90;;;;;;5436099;26;20015;-66
2024/04/08 11:33:54;;;;;;;6.37;1.70;;;23.20;55.40;;;;;;5415898;26;20007;-66
2024/04/08 11:36:19;;;;;;;9.57;2.77;;;23.50;56.10;;;;;;5432846;26;20281;-65
2024/04/08 11:38:45;;;;;;;7.60;1.53;;;23.60;55.60;;;;;;5447598;26;20003;-65
2024/04/08 11:41:11;;;;;;;4.43;1.47;;;23.50;56.20;;;;;;5405565;26;20800;-65
2024/04/08 11:43:36;;;;;;;6.93;1.57;;;23.50;56.30;;;;;;5448447;26;19995;-65
2024/04/08 11:46:02;;;;;;;7.43;1.42;;;23.50;56.20;;;;;;5434848;26;20006;-65
2024/04/08 11:48:28;;;;;;;6.35;1.35;;;23.60;56.10;;;;;;5435989;26;20113;-66
2024/04/08 11:50:53;;;;;;;9.97;1.80;;;23.80;54.70;;;;;;5434164;26;19999;-65
2024/04/08 11:53:19;;;;;;;3.95;1.70;;;23.60;53.80;;;;;;5436166;26;20338;-66
2024/04/08 11:55:45;;;;;;;10.63;1.80;;;23.60;56.00;;;;;;5412807;26;20449;-65
2024/04/08 11:58:10;;;;;;;8.60;2.20;;;23.40;53.80;;;;;;5446939;26;20003;-65
2024/04/08 12:00:36;;;;;;;7.78;1.50;;;23.60;54.20;;;;;;5446490;26;19995;-65
2024/04/08 12:03:02;;;;;;;11.40;1.97;;;23.60;54.80;;;;;;5446415;26;20006;-65
2024/04/08 12:05:27;;;;;;;8.57;1.85;;;23.80;54.80;;;;;;5446078;26;20656;-65
2024/04/08 12:07:54;;;;;;;12.73;1.87;;;23.80;54.40;;;;;;5446366;26;20010;-66
2024/04/08 12:10:20;;;;;;;20.17;2.33;;;23.90;54.50;;;;;;5414662;26;20221;-65
2024/04/08 12:12:45;;;;;;;13.07;1.73;;;23.90;54.70;;;;;;5409107;26;20337;-67
2024/04/08 12:15:12;;;;;;;4.00;1.53;;;23.70;54.80;;;;;;5441530;26;20276;-66
2024/04/08 12:17:38;;;;;;;10.82;1.92;;;23.70;55.50;;;;;;5406707;26;20004;-65
2024/04/08 12:20:05;;;;;;;17.75;1.65;;;23.80;55.70;;;;;;5439516;26;20014;-66
2024/04/08 12:22:30;;;;;;;6.20;1.95;;;23.80;55.70;;;;;;5443225;26;20042;-65
2024/04/08 12:24:56;;;;;;;8.60;1.90;;;23.90;55.00;;;;;;5419106;26;20008;-66
2024/04/08 12:27:27;;;;;;;7.63;1.70;;;23.90;55.40;;;;;;5437749;26;20284;-65
2024/04/08 12:29:53;;;;;;;6.28;1.88;;;23.70;55.90;;;;;;5405856;26;20433;-66
2024/04/08 12:32:19;;;;;;;5.93;1.42;;;23.90;55.20;;;;;;5414802;26;19994;-67
2024/04/08 12:34:45;;;;;;;8.52;1.77;;;24.00;54.00;;;;;;5447248;26;19991;-65
2024/04/08 12:37:10;;;;;;;10.10;1.97;;;24.40;54.00;;;;;;5445556;26;19999;-66
2024/04/08 12:39:38;;;;;;;5.23;1.33;;;24.50;53.80;;;;;;5445366;26;19995;-65
2024/04/08 12:42:05;;;;;;;8.50;1.67;;;24.50;54.40;;;;;;5439107;26;20221;-65